Time;durP1;ratioP1;P1;durP2;ratioP2;P2;SDS_P1;SDS_P2;PMS_P1;PMS_P2;Temp;Humidity;BMP_temperature;BMP_pressure;BME280_temperature;BME280_humidity;BME280_pressure;Samples;Min_cycle;Max_cycle;Signal;HPM_P1;HPM_P2
2023/03/17 00:01:18;;;;;;;52.05;34.45;;;26.00;99.90;;;;;;5042223;28;20053;-66
2023/03/17 00:03:48;;;;;;;86.65;60.47;;;26.00;99.90;;;;;;5043319;28;20112;-66
2023/03/17 00:06:24;;;;;;;48.22;32.03;;;26.00;99.90;;;;;;5042595;28;20025;-67
2023/03/17 00:08:50;;;;;;;56.90;35.17;;;26.10;99.90;;;;;;5044694;28;20032;-69
2023/03/17 00:11:17;;;;;;;54.60;32.03;;;26.10;99.90;;;;;;5035723;28;20068;-68
2023/03/17 00:13:45;;;;;;;56.42;33.25;;;26.10;99.90;;;;;;5041970;28;20043;-72
2023/03/17 00:16:26;;;;;;;54.45;33.58;;;26.10;99.90;;;;;;5046967;28;20266;-68
2023/03/17 00:18:54;;;;;;;63.17;34.05;;;26.20;99.90;;;;;;5045286;28;20072;-68
2023/03/17 00:21:28;;;;;;;52.10;31.60;;;26.20;99.90;;;;;;5047506;22;20061;-66
2023/03/17 00:23:55;;;;;;;46.90;30.17;;;26.30;99.90;;;;;;5017668;28;20029;-69
2023/03/17 00:26:23;;;;;;;45.88;29.05;;;26.40;99.90;;;;;;5026831;28;20068;-69
2023/03/17 00:28:50;;;;;;;48.17;29.92;;;26.40;99.90;;;;;;5035231;28;20028;-72
2023/03/17 00:31:23;;;;;;;54.72;31.25;;;26.50;99.90;;;;;;5034931;28;20112;-68
2023/03/17 00:33:51;;;;;;;69.53;41.55;;;26.50;99.90;;;;;;5035000;28;20029;-68
2023/03/17 00:36:23;;;;;;;124.75;76.97;;;26.50;99.90;;;;;;5031703;28;20285;-69
2023/03/17 00:38:51;;;;;;;87.87;50.43;;;26.50;99.90;;;;;;5024092;28;20444;-69
2023/03/17 00:41:18;;;;;;;80.72;44.28;;;26.60;99.90;;;;;;5023134;28;20186;-69
2023/03/17 00:43:44;;;;;;;64.50;38.10;;;26.60;99.90;;;;;;5022185;28;20475;-67
2023/03/17 00:46:17;;;;;;;57.65;32.35;;;26.60;99.90;;;;;;5021196;28;20191;-70
2023/03/17 00:48:45;;;;;;;62.20;32.08;;;26.70;99.90;;;;;;5032698;28;20021;-68
2023/03/17 00:51:12;;;;;;;63.60;35.65;;;26.70;99.90;;;;;;5025848;28;20112;-69
2023/03/17 00:53:39;;;;;;;54.22;35.28;;;26.70;99.90;;;;;;5023479;28;20368;-69
2023/03/17 00:56:14;;;;;;;60.17;34.63;;;26.70;99.90;;;;;;5027958;28;20049;-69
2023/03/17 00:58:41;;;;;;;64.35;39.90;;;26.80;99.90;;;;;;5032312;28;20037;-69
2023/03/17 01:01:09;;;;;;;70.57;42.85;;;26.90;99.90;;;;;;5033643;28;20037;-68
2023/03/17 01:03:37;;;;;;;74.03;44.13;;;26.90;99.90;;;;;;5035734;28;20033;-67
2023/03/17 01:06:07;;;;;;;66.32;42.35;;;27.10;99.90;;;;;;5035882;28;20025;-68
2023/03/17 01:08:34;;;;;;;63.53;44.80;;;27.20;99.90;;;;;;5035843;28;20026;-68
2023/03/17 01:11:01;;;;;;;70.90;45.83;;;27.20;99.90;;;;;;5034176;28;20041;-66
2023/03/17 01:13:28;;;;;;;79.75;46.30;;;27.20;99.90;;;;;;5034128;28;20367;-68
2023/03/17 01:15:55;;;;;;;54.95;35.67;;;27.30;99.90;;;;;;5035433;28;20463;-71
2023/03/17 01:18:22;;;;;;;65.05;39.70;;;27.30;99.90;;;;;;5035245;28;20037;-67
2023/03/17 01:20:52;;;;;;;65.90;42.22;;;27.40;99.90;;;;;;5035231;28;20037;-67
2023/03/17 01:23:18;;;;;;;56.85;31.52;;;27.40;99.90;;;;;;5032633;28;20104;-67
2023/03/17 01:25:45;;;;;;;47.88;33.58;;;27.30;99.90;;;;;;5035236;28;20021;-67
2023/03/17 01:28:16;;;;;;;52.17;31.35;;;27.40;99.90;;;;;;5035486;28;20017;-68
2023/03/17 01:30:44;;;;;;;51.40;28.00;;;27.40;99.90;;;;;;5033245;28;20113;-68
2023/03/17 01:33:11;;;;;;;34.97;19.35;;;27.50;99.90;;;;;;5035050;28;20060;-67
2023/03/17 01:35:40;;;;;;;44.00;22.52;;;27.50;99.90;;;;;;5032710;28;20017;-67
2023/03/17 01:38:07;;;;;;;49.65;22.80;;;27.50;99.90;;;;;;5035223;28;20368;-67
2023/03/17 01:40:37;;;;;;;87.68;49.50;;;27.50;99.90;;;;;;5034761;28;20029;-68
2023/03/17 01:43:26;;;;;;;66.20;35.00;;;27.60;99.90;;;;;;5035026;28;20088;-70
2023/03/17 01:46:31;;;;;;;34.28;16.88;;;27.60;99.90;;;;;;5033451;28;20490;-67
2023/03/17 01:49:08;;;;;;;45.17;23.65;;;27.70;99.90;;;;;;5034066;28;20037;-68
2023/03/17 01:51:40;;;;;;;40.03;17.83;;;27.70;99.90;;;;;;5030916;28;20093;-66
2023/03/17 01:54:13;;;;;;;67.25;43.33;;;27.80;99.90;;;;;;5031757;28;20032;-69
2023/03/17 01:56:43;;;;;;;66.90;36.80;;;27.80;99.90;;;;;;5032676;28;20021;-69
2023/03/17 01:59:15;;;;;;;33.33;14.52;;;28.00;99.90;;;;;;5033164;28;20104;-67
2023/03/17 02:01:47;;;;;;;30.73;13.05;;;28.00;99.90;;;;;;5032983;28;20036;-70
2023/03/17 02:04:14;;;;;;;25.00;12.30;;;28.00;99.90;;;;;;5033853;28;20497;-67
2023/03/17 02:06:42;;;;;;;27.05;12.07;;;28.00;99.90;;;;;;5032137;28;20075;-68
2023/03/17 02:09:08;;;;;;;25.45;12.05;;;28.00;99.90;;;;;;5032880;28;20029;-69
2023/03/17 02:11:35;;;;;;;26.95;16.65;;;28.10;99.90;;;;;;5032448;28;20029;-69
2023/03/17 02:14:02;;;;;;;45.88;35.63;;;28.10;99.90;;;;;;5032888;28;20029;-68
2023/03/17 02:16:31;;;;;;;72.72;41.35;;;28.20;99.90;;;;;;5031196;28;20033;-69
2023/03/17 02:18:58;;;;;;;96.78;49.67;;;28.20;99.90;;;;;;5033120;28;20021;-69
2023/03/17 02:21:26;;;;;;;23.58;11.73;;;28.30;99.90;;;;;;5032630;28;20120;-70
2023/03/17 02:23:53;;;;;;;24.63;11.90;;;28.30;99.90;;;;;;5032694;28;20014;-70
2023/03/17 02:26:23;;;;;;;28.13;14.18;;;28.40;99.90;;;;;;5030753;28;20017;-69
2023/03/17 02:31:23;;;;;;;29.17;12.50;;;28.40;99.90;;;;;;5035327;28;20572;-67
2023/03/17 02:33:51;;;;;;;24.35;10.07;;;28.50;99.90;;;;;;5037088;28;20029;-69
2023/03/17 02:36:17;;;;;;;25.25;10.93;;;28.50;99.90;;;;;;5060024;22;20017;-73
2023/03/17 02:38:47;;;;;;;24.08;9.95;;;28.50;99.90;;;;;;5048971;28;20037;-67
2023/03/17 02:41:13;;;;;;;22.80;9.68;;;28.50;99.90;;;;;;5048635;28;20112;-68
2023/03/17 02:43:41;;;;;;;27.70;12.77;;;28.50;99.90;;;;;;5051520;28;20529;-68
2023/03/17 02:46:07;;;;;;;24.88;10.32;;;28.60;99.90;;;;;;5047264;28;20028;-68
2023/03/17 02:48:36;;;;;;;22.23;9.85;;;28.60;99.90;;;;;;5051765;28;20017;-67
2023/03/17 02:51:03;;;;;;;17.95;9.32;;;28.60;99.90;;;;;;5051417;28;20381;-67
2023/03/17 02:53:30;;;;;;;18.75;10.02;;;28.60;99.90;;;;;;5053165;28;20024;-68
2023/03/17 02:55:59;;;;;;;18.67;10.82;;;28.60;99.90;;;;;;5050687;28;20048;-69
2023/03/17 02:58:26;;;;;;;24.25;10.68;;;28.60;99.90;;;;;;5052937;28;20025;-63
2023/03/17 03:00:53;;;;;;;20.77;10.80;;;28.60;99.90;;;;;;5050628;28;20025;-64
2023/03/17 03:03:20;;;;;;;24.23;10.27;;;28.70;99.90;;;;;;5050348;28;20032;-64
2023/03/17 03:05:47;;;;;;;20.75;10.02;;;28.70;99.90;;;;;;5049921;28;20033;-63
2023/03/17 03:08:13;;;;;;;20.17;10.43;;;28.70;99.90;;;;;;5049296;28;20021;-63
2023/03/17 03:10:40;;;;;;;21.63;10.65;;;28.80;99.90;;;;;;5048560;28;20028;-63
2023/03/17 03:13:07;;;;;;;22.65;11.57;;;28.80;99.90;;;;;;5051701;28;20083;-63
2023/03/17 03:15:34;;;;;;;24.30;11.45;;;28.80;99.90;;;;;;5050316;28;20043;-62
2023/03/17 03:18:01;;;;;;;24.45;13.45;;;28.80;99.90;;;;;;5049062;28;20024;-62
2023/03/17 03:20:27;;;;;;;23.38;11.80;;;28.90;99.90;;;;;;5051539;28;20444;-61
2023/03/17 03:22:54;;;;;;;20.50;9.18;;;28.90;99.90;;;;;;5051050;28;20052;-63
2023/03/17 03:25:20;;;;;;;21.90;10.32;;;28.90;99.90;;;;;;5050362;28;20500;-60
2023/03/17 03:27:47;;;;;;;22.83;11.43;;;28.90;99.90;;;;;;5049473;28;20561;-62
2023/03/17 03:30:14;;;;;;;27.10;13.10;;;28.90;99.90;;;;;;5052551;28;20021;-62
2023/03/17 03:32:40;;;;;;;25.92;12.00;;;29.00;99.90;;;;;;5052633;28;20032;-66
2023/03/17 03:35:07;;;;;;;21.35;11.75;;;29.10;99.90;;;;;;5047760;28;20021;-66
2023/03/17 03:37:34;;;;;;;22.25;11.20;;;29.30;99.90;;;;;;5049759;28;20124;-65
2023/03/17 03:40:00;;;;;;;23.58;9.85;;;29.30;99.90;;;;;;5047369;28;20034;-65
2023/03/17 03:42:27;;;;;;;18.75;10.52;;;29.30;99.90;;;;;;5050409;28;20172;-66
2023/03/17 03:44:53;;;;;;;22.75;11.13;;;29.30;99.90;;;;;;5052144;28;20381;-68
2023/03/17 03:47:20;;;;;;;22.52;10.93;;;29.30;99.90;;;;;;5048433;28;20017;-65
2023/03/17 03:49:46;;;;;;;24.60;11.98;;;29.30;99.90;;;;;;5051056;28;20013;-66
2023/03/17 03:52:13;;;;;;;22.38;11.73;;;29.40;99.90;;;;;;5051650;28;20025;-66
2023/03/17 03:54:39;;;;;;;20.77;10.32;;;29.40;99.90;;;;;;5049167;28;20526;-66
2023/03/17 03:57:06;;;;;;;26.02;12.23;;;29.30;99.90;;;;;;5051462;28;20404;-65
2023/03/17 03:59:33;;;;;;;21.55;13.23;;;29.30;99.90;;;;;;5051443;28;20457;-67
2023/03/17 04:01:59;;;;;;;32.63;12.32;;;29.30;99.90;;;;;;5047116;28;20017;-64
2023/03/17 04:04:26;;;;;;;21.73;11.20;;;29.30;99.90;;;;;;5051383;28;20118;-70
2023/03/17 04:06:52;;;;;;;22.83;11.07;;;29.20;99.90;;;;;;5051307;28;20036;-68
2023/03/17 04:09:19;;;;;;;22.45;10.88;;;29.30;99.90;;;;;;5051427;28;20488;-66
2023/03/17 04:11:45;;;;;;;21.63;11.38;;;29.30;99.90;;;;;;5051282;28;20050;-66
2023/03/17 04:14:12;;;;;;;24.15;11.57;;;29.40;99.90;;;;;;5051139;28;20025;-66
2023/03/17 04:16:39;;;;;;;29.30;12.32;;;29.40;99.90;;;;;;5051147;28;20071;-66
2023/03/17 04:19:06;;;;;;;22.30;9.90;;;29.40;99.90;;;;;;5049185;28;20029;-66
2023/03/17 04:21:32;;;;;;;19.75;9.82;;;29.50;99.90;;;;;;5051743;28;20017;-66
2023/03/17 04:23:59;;;;;;;25.92;9.82;;;29.70;99.90;;;;;;5052563;28;20017;-66
2023/03/17 04:26:25;;;;;;;18.17;9.30;;;29.80;99.90;;;;;;5055592;28;20112;-67
2023/03/17 04:28:53;;;;;;;18.98;9.65;;;29.90;99.90;;;;;;5054553;28;20012;-66
2023/03/17 04:31:20;;;;;;;21.80;9.65;;;29.90;99.90;;;;;;5055964;28;20100;-66
2023/03/17 04:33:46;;;;;;;26.27;10.77;;;30.00;99.90;;;;;;5055595;28;20070;-66
2023/03/17 04:36:18;;;;;;;26.15;10.95;;;30.00;99.90;;;;;;5055317;28;20021;-66
2023/03/17 04:38:45;;;;;;;;;;;30.00;99.90;;;;;;5054079;28;20078;-63
2023/03/17 04:41:12;;;;;;;31.38;12.32;;;30.00;99.90;;;;;;5056036;28;19920;-63
2023/03/17 04:43:38;;;;;;;22.23;9.18;;;29.90;99.90;;;;;;5055864;28;20488;-65
2023/03/17 04:46:05;;;;;;;17.20;9.23;;;29.90;99.90;;;;;;5055941;28;20095;-65
2023/03/17 04:48:31;;;;;;;24.73;9.50;;;29.90;99.90;;;;;;5056139;28;20051;-65
2023/03/17 04:50:58;;;;;;;18.40;9.88;;;29.90;99.90;;;;;;5055725;28;20025;-65
2023/03/17 04:53:25;;;;;;;20.30;9.82;;;29.90;99.90;;;;;;5055999;28;20051;-65
2023/03/17 04:55:51;;;;;;;20.90;9.82;;;29.90;99.90;;;;;;5055901;28;20113;-65
2023/03/17 04:58:18;;;;;;;18.20;9.75;;;29.90;99.90;;;;;;5055581;28;20400;-66
2023/03/17 05:00:45;;;;;;;17.67;10.20;;;29.90;99.90;;;;;;5055677;28;20063;-65
2023/03/17 05:03:12;;;;;;;19.30;8.93;;;30.00;99.90;;;;;;5051940;28;20485;-66
2023/03/17 05:05:38;;;;;;;19.98;9.80;;;29.90;99.90;;;;;;5055507;28;20107;-66
2023/03/17 05:08:05;;;;;;;17.30;8.80;;;30.00;99.90;;;;;;5053883;28;20032;-64
2023/03/17 05:10:31;;;;;;;16.10;8.07;;;30.10;99.90;;;;;;5050953;28;20096;-63
2023/03/17 05:12:58;;;;;;;16.35;8.40;;;30.00;99.90;;;;;;5054342;28;20017;-63
2023/03/17 05:15:25;;;;;;;21.70;9.27;;;30.10;99.90;;;;;;5053453;28;20053;-65
2023/03/17 05:17:51;;;;;;;17.40;9.55;;;30.00;99.90;;;;;;5054795;28;20021;-65
2023/03/17 05:20:18;;;;;;;17.98;10.05;;;30.00;99.90;;;;;;5054140;28;20032;-63
2023/03/17 05:22:45;;;;;;;19.80;9.35;;;30.00;99.90;;;;;;5054192;28;20013;-63
2023/03/17 05:25:11;;;;;;;23.48;10.63;;;30.00;99.90;;;;;;5053160;28;20543;-64
2023/03/17 05:27:38;;;;;;;21.02;10.82;;;30.00;99.90;;;;;;5053521;28;20470;-64
2023/03/17 05:30:05;;;;;;;22.73;10.30;;;30.00;99.90;;;;;;5053643;28;20111;-64
2023/03/17 05:32:31;;;;;;;19.27;10.50;;;29.90;99.90;;;;;;5053559;28;20063;-65
2023/03/17 05:34:58;;;;;;;22.42;11.02;;;29.90;99.90;;;;;;5053799;28;20056;-63
2023/03/17 05:37:25;;;;;;;26.13;11.95;;;29.80;99.90;;;;;;5053372;28;20679;-64
2023/03/17 05:39:52;;;;;;;23.00;10.57;;;29.80;99.90;;;;;;5053628;28;20398;-65
2023/03/17 05:42:19;;;;;;;24.58;11.05;;;29.80;99.90;;;;;;5052993;28;20083;-66
2023/03/17 05:44:46;;;;;;;18.30;10.63;;;29.80;99.90;;;;;;5052609;28;20025;-64
2023/03/17 05:47:12;;;;;;;19.52;10.63;;;29.80;99.90;;;;;;5054779;28;20434;-64
2023/03/17 05:49:39;;;;;;;18.17;11.82;;;29.80;99.90;;;;;;5052020;28;20540;-65
2023/03/17 05:52:05;;;;;;;21.02;11.15;;;29.90;99.90;;;;;;5051297;28;20042;-67
2023/03/17 05:54:32;;;;;;;22.58;11.57;;;29.90;99.90;;;;;;5044228;28;20445;-67
2023/03/17 05:56:58;;;;;;;20.63;9.90;;;30.00;99.90;;;;;;5036422;28;20025;-66
2023/03/17 05:59:25;;;;;;;23.48;9.82;;;30.00;99.90;;;;;;5035716;28;20113;-65
2023/03/17 06:01:51;;;;;;;16.95;8.65;;;29.90;99.90;;;;;;5035440;28;20112;-67
2023/03/17 06:04:18;;;;;;;15.23;9.00;;;29.90;99.90;;;;;;5035948;28;20413;-65
2023/03/17 06:06:45;;;;;;;14.73;9.85;;;29.90;99.90;;;;;;5035049;28;20017;-63
2023/03/17 06:09:11;;;;;;;16.48;8.02;;;29.90;99.90;;;;;;5035048;28;20030;-64
2023/03/17 06:11:38;;;;;;;15.55;8.25;;;29.90;99.90;;;;;;5035134;28;20025;-64
2023/03/17 06:14:04;;;;;;;18.95;8.57;;;29.90;99.90;;;;;;5035959;28;20104;-67
2023/03/17 06:16:32;;;;;;;18.35;9.15;;;30.00;99.90;;;;;;5052687;28;20071;-63
2023/03/17 06:18:59;;;;;;;21.33;10.50;;;30.00;99.90;;;;;;5054535;28;20025;-65
2023/03/17 06:21:26;;;;;;;21.60;10.55;;;30.10;99.90;;;;;;5053845;28;20458;-65
2023/03/17 06:23:53;;;;;;;19.95;10.43;;;30.10;99.90;;;;;;5052854;28;20037;-64
2023/03/17 06:26:19;;;;;;;22.23;10.35;;;30.10;99.90;;;;;;5049919;28;20025;-66
2023/03/17 06:28:46;;;;;;;18.85;9.43;;;30.10;99.90;;;;;;5054240;28;20104;-65
2023/03/17 06:31:12;;;;;;;15.70;9.88;;;30.10;99.90;;;;;;5054305;28;20056;-65
2023/03/17 06:33:38;;;;;;;18.85;9.35;;;30.10;99.90;;;;;;5054341;28;20492;-65
2023/03/17 06:36:06;;;;;;;26.05;10.30;;;30.20;99.90;;;;;;5054213;28;20033;-65
2023/03/17 06:38:33;;;;;;;20.40;9.82;;;30.20;99.90;;;;;;5054296;28;20087;-66
2023/03/17 06:41:00;;;;;;;21.20;8.57;;;30.20;99.90;;;;;;5054094;28;20037;-66
2023/03/17 06:43:27;;;;;;;17.20;9.63;;;30.20;99.90;;;;;;5054224;28;20057;-65
2023/03/17 06:45:53;;;;;;;17.25;9.38;;;30.20;99.90;;;;;;5053225;28;20070;-66
2023/03/17 06:48:22;;;;;;;15.52;8.40;;;30.20;99.90;;;;;;5053902;28;20025;-66
2023/03/17 06:50:49;;;;;;;13.57;7.65;;;30.20;99.90;;;;;;5052362;28;20029;-65
2023/03/17 06:53:16;;;;;;;20.20;8.88;;;30.20;99.90;;;;;;5055087;28;20437;-65
2023/03/17 06:55:42;;;;;;;16.13;7.93;;;30.20;99.90;;;;;;5054329;28;20167;-65
2023/03/17 06:58:09;;;;;;;13.57;8.20;;;30.30;99.90;;;;;;5053892;28;20032;-66
2023/03/17 07:00:38;;;;;;;18.58;9.27;;;30.30;99.90;;;;;;5053744;28;20397;-66
2023/03/17 07:03:05;;;;;;;19.67;8.88;;;30.30;99.90;;;;;;5046267;28;20060;-64
2023/03/17 07:05:32;;;;;;;19.25;8.57;;;30.30;99.90;;;;;;5047489;28;20031;-67
2023/03/17 07:07:59;;;;;;;17.73;9.02;;;30.40;99.90;;;;;;5052156;28;20037;-66
2023/03/17 07:10:25;;;;;;;13.95;8.27;;;30.40;99.90;;;;;;5050152;28;20558;-66
2023/03/17 07:12:52;;;;;;;16.88;9.20;;;30.50;99.90;;;;;;5054028;28;20025;-65
2023/03/17 07:15:19;;;;;;;19.10;9.43;;;30.50;99.90;;;;;;5053599;28;20040;-66
2023/03/17 07:17:46;;;;;;;15.60;8.50;;;30.50;99.90;;;;;;5052414;28;20025;-66
2023/03/17 07:20:13;;;;;;;19.67;9.63;;;30.60;99.90;;;;;;5046314;22;20053;-63
2023/03/17 07:22:41;;;;;;;15.98;8.73;;;30.70;99.90;;;;;;5038457;28;20030;-65
2023/03/17 07:25:08;;;;;;;14.77;9.88;;;30.70;99.90;;;;;;5038884;28;20375;-66
2023/03/17 07:27:35;;;;;;;20.15;8.98;;;30.70;99.90;;;;;;5050462;28;20106;-65
2023/03/17 07:30:03;;;;;;;18.63;7.72;;;30.70;99.90;;;;;;5044772;28;20030;-65
2023/03/17 07:32:30;;;;;;;14.43;8.90;;;30.70;99.90;;;;;;5038405;28;20033;-66
2023/03/17 07:34:57;;;;;;;15.05;8.77;;;30.70;99.90;;;;;;5046402;28;20025;-66
2023/03/17 07:37:24;;;;;;;18.02;8.57;;;30.70;99.90;;;;;;5053122;28;20624;-66
2023/03/17 07:39:50;;;;;;;15.57;8.55;;;30.70;99.90;;;;;;5053170;28;20025;-67
2023/03/17 07:42:17;;;;;;;17.23;10.00;;;30.80;99.90;;;;;;5053175;28;20417;-67
2023/03/17 07:44:44;;;;;;;17.67;8.52;;;31.00;99.90;;;;;;5052855;28;20025;-66
2023/03/17 07:47:11;;;;;;;18.83;9.63;;;31.00;99.90;;;;;;5053070;28;20193;-66
2023/03/17 07:49:38;;;;;;;15.77;9.95;;;31.00;99.90;;;;;;5053005;28;20413;-66
2023/03/17 07:52:05;;;;;;;17.50;9.05;;;31.00;99.90;;;;;;5052734;28;20055;-66
2023/03/17 07:54:31;;;;;;;15.50;9.10;;;30.90;99.90;;;;;;5052615;28;20029;-66
2023/03/17 07:56:58;;;;;;;23.60;12.57;;;30.90;99.90;;;;;;5056350;28;20017;-66
2023/03/17 07:59:25;;;;;;;23.35;9.93;;;31.00;99.90;;;;;;5057546;28;20385;-66
2023/03/17 08:01:51;;;;;;;18.40;9.93;;;31.00;99.90;;;;;;5058171;28;20438;-66
2023/03/17 08:04:18;;;;;;;12.88;7.55;;;31.10;99.90;;;;;;5057683;28;20027;-66
2023/03/17 08:06:45;;;;;;;18.00;9.23;;;31.00;99.90;;;;;;5056101;28;20040;-66
2023/03/17 08:09:12;;;;;;;19.17;9.52;;;31.10;99.90;;;;;;5057094;28;20021;-66
2023/03/17 08:11:39;;;;;;;16.08;8.93;;;31.10;99.90;;;;;;5057020;28;20025;-66
2023/03/17 08:14:06;;;;;;;14.88;8.43;;;31.20;99.90;;;;;;5057168;28;20094;-66
2023/03/17 08:16:32;;;;;;;12.65;8.35;;;31.20;99.90;;;;;;5057025;28;20474;-66
2023/03/17 08:18:59;;;;;;;13.90;7.70;;;31.20;99.90;;;;;;5056904;28;20171;-66
2023/03/17 08:21:26;;;;;;;13.65;8.07;;;31.10;99.90;;;;;;5056912;28;20029;-66
2023/03/17 08:23:54;;;;;;;17.52;7.82;;;31.10;99.90;;;;;;5056733;28;20028;-66
2023/03/17 08:26:20;;;;;;;13.55;7.45;;;31.20;99.90;;;;;;5057027;28;20374;-67
2023/03/17 08:28:47;;;;;;;13.20;6.97;;;31.10;99.90;;;;;;5056899;28;20029;-67
2023/03/17 08:31:17;;;;;;;13.85;7.25;;;31.20;99.90;;;;;;5057007;28;20035;-67
2023/03/17 08:33:47;;;;;;;11.85;7.45;;;31.20;99.90;;;;;;5056973;28;20029;-67
2023/03/17 08:36:15;;;;;;;13.45;7.53;;;31.20;99.90;;;;;;5051428;28;20061;-67
2023/03/17 08:38:42;;;;;;;17.75;8.48;;;31.20;99.90;;;;;;5047042;28;20036;-65
2023/03/17 08:41:12;;;;;;;16.88;11.15;;;31.20;99.90;;;;;;5055435;28;20059;-66
2023/03/17 08:43:40;;;;;;;14.90;7.60;;;31.20;99.90;;;;;;5055407;28;20029;-67
2023/03/17 08:46:13;;;;;;;14.60;7.57;;;31.20;99.90;;;;;;5056009;28;20021;-67
2023/03/17 08:48:40;;;;;;;14.10;8.10;;;31.20;99.90;;;;;;5053775;28;20427;-66
2023/03/17 08:51:06;;;;;;;13.93;8.43;;;31.30;99.90;;;;;;5054134;28;20095;-66
2023/03/17 08:53:34;;;;;;;12.57;7.65;;;31.30;99.90;;;;;;5054792;28;20021;-67
2023/03/17 08:56:03;;;;;;;12.70;8.82;;;31.30;99.90;;;;;;5055203;28;20025;-67
2023/03/17 08:58:30;;;;;;;12.20;7.18;;;31.30;99.90;;;;;;5055387;28;20029;-67
2023/03/17 09:01:00;;;;;;;11.02;6.18;;;31.30;99.90;;;;;;5055436;28;20147;-67
2023/03/17 09:03:27;;;;;;;15.10;7.97;;;31.40;99.90;;;;;;5055483;28;20036;-67
2023/03/17 09:05:54;;;;;;;13.00;7.80;;;31.40;99.90;;;;;;5055737;28;20017;-67
2023/03/17 09:08:21;;;;;;;10.98;7.22;;;31.40;99.90;;;;;;5055030;28;20029;-67
2023/03/17 09:10:48;;;;;;;13.75;7.20;;;31.40;99.90;;;;;;5055830;28;20485;-67
2023/03/17 09:13:16;;;;;;;12.60;7.03;;;31.40;99.90;;;;;;5055703;28;20041;-67
2023/03/17 09:15:43;;;;;;;14.05;7.90;;;31.40;99.90;;;;;;5055732;28;20021;-67
2023/03/17 09:18:10;;;;;;;14.27;9.20;;;31.40;99.90;;;;;;5055372;28;20056;-67
2023/03/17 09:20:37;;;;;;;15.93;9.85;;;31.40;99.90;;;;;;5055392;28;20048;-66
2023/03/17 09:23:08;;;;;;;22.63;11.75;;;31.40;99.90;;;;;;5055575;28;20096;-66
2023/03/17 09:25:36;;;;;;;21.60;13.23;;;31.40;99.90;;;;;;5055367;28;20443;-66
2023/03/17 09:28:04;;;;;;;32.70;18.15;;;31.50;99.90;;;;;;5055240;28;20060;-66
2023/03/17 09:30:31;;;;;;;47.08;23.52;;;31.50;99.90;;;;;;5055449;28;20028;-66
2023/03/17 09:32:57;;;;;;;64.90;29.27;;;31.60;99.90;;;;;;5055090;28;20397;-66
2023/03/17 09:35:26;;;;;;;43.97;23.10;;;31.60;99.90;;;;;;5055250;28;20027;-66
2023/03/17 09:37:54;;;;;;;63.15;34.72;;;31.60;99.90;;;;;;5055481;28;20111;-66
2023/03/17 09:40:27;;;;;;;144.07;84.22;;;31.60;99.90;;;;;;5055091;28;20660;-66
2023/03/17 09:43:19;;;;;;;48.15;25.58;;;31.50;99.90;;;;;;5055159;28;20057;-66
2023/03/17 09:45:46;;;;;;;42.63;22.02;;;31.50;99.90;;;;;;5054851;28;20021;-66
2023/03/17 09:48:38;;;;;;;21.70;10.55;;;31.60;99.90;;;;;;5055022;28;20025;-67
2023/03/17 09:51:09;;;;;;;17.90;9.80;;;31.60;99.90;;;;;;5054950;28;20029;-67
2023/03/17 09:53:48;;;;;;;33.42;17.85;;;31.60;99.90;;;;;;5054968;28;20027;-67
2023/03/17 09:56:17;;;;;;;88.97;48.10;;;31.60;99.90;;;;;;5054738;28;20043;-67
2023/03/17 09:58:59;;;;;;;84.15;46.60;;;31.60;99.90;;;;;;5054721;28;20489;-67
2023/03/17 10:01:26;;;;;;;172.55;92.00;;;31.50;99.90;;;;;;5054864;28;20029;-67
2023/03/17 10:03:53;;;;;;;86.65;46.78;;;31.50;99.90;;;;;;5054609;28;20021;-67
2023/03/17 10:06:28;;;;;;;89.57;45.85;;;31.50;99.90;;;;;;5054828;28;20033;-66
2023/03/17 10:09:01;;;;;;;57.25;30.80;;;31.60;99.90;;;;;;5054695;28;20016;-66
2023/03/17 10:11:41;;;;;;;30.05;19.38;;;31.60;99.90;;;;;;5054560;28;20539;-67
2023/03/17 10:14:29;;;;;;;30.17;15.00;;;31.70;99.90;;;;;;5054255;28;20039;-66
2023/03/17 10:17:00;;;;;;;33.47;13.60;;;31.70;99.90;;;;;;5046620;28;20072;-66
2023/03/17 10:19:37;;;;;;;19.25;12.60;;;31.60;99.90;;;;;;5039643;28;20088;-66
2023/03/17 10:22:29;;;;;;;30.70;13.55;;;31.50;99.90;;;;;;5034492;28;20056;-67
2023/03/17 10:25:02;;;;;;;36.97;20.67;;;31.50;99.90;;;;;;5027787;28;20108;-67
2023/03/17 10:27:35;;;;;;;27.85;13.50;;;31.50;99.90;;;;;;5034298;28;20397;-67
2023/03/17 10:30:02;;;;;;;26.05;12.18;;;31.50;99.90;;;;;;5034205;28;20387;-67
2023/03/17 10:32:31;;;;;;;23.70;12.88;;;31.50;99.90;;;;;;5034167;28;20061;-67
2023/03/17 10:34:58;;;;;;;31.15;13.98;;;31.50;99.90;;;;;;5034255;28;20042;-67
2023/03/17 10:37:26;;;;;;;30.80;15.73;;;31.40;99.90;;;;;;5034010;28;20029;-67
2023/03/17 10:39:55;;;;;;;28.75;13.82;;;31.50;99.90;;;;;;5034022;28;20018;-67
2023/03/17 10:42:32;;;;;;;24.02;15.20;;;31.40;99.90;;;;;;5033848;28;20113;-67
2023/03/17 10:45:23;;;;;;;23.20;12.85;;;31.40;99.90;;;;;;5033921;28;20087;-66
2023/03/17 10:47:50;;;;;;;26.75;14.30;;;31.40;99.90;;;;;;5033753;28;20112;-67
2023/03/17 10:50:24;;;;;;;36.45;18.30;;;31.30;99.90;;;;;;5037947;28;20077;-67
2023/03/17 10:52:59;;;;;;;59.88;30.92;;;31.30;99.90;;;;;;5053538;28;20033;-67
2023/03/17 10:55:31;;;;;;;42.20;24.15;;;31.30;99.90;;;;;;5053870;28;20016;-70
2023/03/17 10:58:14;;;;;;;39.72;20.42;;;31.20;99.90;;;;;;5035799;28;20386;-70
2023/03/17 11:00:50;;;;;;;34.50;18.98;;;31.20;99.90;;;;;;5053633;28;20473;-68
2023/03/17 11:03:22;;;;;;;31.40;17.58;;;31.20;99.90;;;;;;5053593;28;20021;-68
2023/03/17 11:06:04;;;;;;;41.20;19.55;;;31.10;99.90;;;;;;5053634;28;20074;-68
2023/03/17 11:08:40;;;;;;;30.63;17.15;;;31.00;99.90;;;;;;5053552;28;20494;-67
2023/03/17 11:11:20;;;;;;;32.97;16.77;;;31.10;99.90;;;;;;5053378;28;20021;-68
2023/03/17 11:13:47;;;;;;;33.15;17.52;;;31.00;99.90;;;;;;5053329;28;20028;-68
2023/03/17 11:16:21;;;;;;;53.03;28.50;;;31.00;99.90;;;;;;5053111;28;20064;-68
2023/03/17 11:18:51;;;;;;;86.18;38.70;;;30.90;99.90;;;;;;5045600;28;20128;-68
2023/03/17 11:21:28;;;;;;;72.68;36.35;;;30.90;99.90;;;;;;5033070;28;20397;-67
2023/03/17 11:24:03;;;;;;;78.00;38.83;;;30.90;99.90;;;;;;5033188;28;20462;-68
2023/03/17 11:26:50;;;;;;;60.17;34.10;;;30.90;99.90;;;;;;5033199;28;20025;-65
2023/03/17 11:29:23;;;;;;;72.47;39.28;;;30.90;99.90;;;;;;5033314;28;20122;-68
2023/03/17 11:32:09;;;;;;;57.20;32.80;;;30.80;99.90;;;;;;5032761;28;20021;-68
2023/03/17 11:34:54;;;;;;;54.42;28.65;;;30.70;99.90;;;;;;5027145;28;20437;-68
2023/03/17 11:37:40;;;;;;;44.08;22.42;;;30.60;99.90;;;;;;5033134;28;20084;-67
2023/03/17 11:40:30;;;;;;;32.22;20.67;;;30.60;99.90;;;;;;5030502;28;20041;-68
2023/03/17 11:43:08;;;;;;;40.25;19.33;;;30.50;99.90;;;;;;5033061;28;20049;-67
2023/03/17 11:46:03;;;;;;;34.25;17.77;;;30.40;99.90;;;;;;5032795;28;20493;-68
2023/03/17 11:48:42;;;;;;;39.42;20.48;;;30.30;99.90;;;;;;5033181;28;20060;-68
2023/03/17 11:51:16;;;;;;;32.33;19.08;;;30.20;99.90;;;;;;5033137;28;20025;-68
2023/03/17 11:54:23;;;;;;;33.17;18.13;;;30.20;99.90;;;;;;5033032;28;20021;-68
2023/03/17 11:56:56;;;;;;;30.00;17.85;;;30.20;99.90;;;;;;5032912;28;20056;-67
2023/03/17 11:59:55;;;;;;;35.55;18.73;;;30.10;99.90;;;;;;5032758;28;20029;-68
2023/03/17 12:02:47;;;;;;;52.10;25.13;;;30.10;99.90;;;;;;5032720;28;20061;-64
2023/03/17 12:05:22;;;;;;;47.10;22.00;;;30.00;99.90;;;;;;5030691;28;20034;-68
2023/03/17 12:07:52;;;;;;;52.65;24.35;;;29.90;99.90;;;;;;5032678;28;20033;-67
2023/03/17 12:10:21;;;;;;;44.30;22.70;;;29.90;99.90;;;;;;5032793;28;20112;-67
2023/03/17 12:12:55;;;;;;;46.63;24.33;;;29.70;99.90;;;;;;5032784;28;20029;-65
2023/03/17 12:15:32;;;;;;;40.53;21.55;;;29.70;99.90;;;;;;5032779;28;20033;-68
2023/03/17 12:18:05;;;;;;;43.83;22.50;;;29.70;99.90;;;;;;5032737;28;20029;-67
2023/03/17 12:21:03;;;;;;;43.10;23.40;;;29.70;99.90;;;;;;5032563;28;20079;-68
2023/03/17 12:23:51;;;;;;;44.72;22.48;;;29.60;99.90;;;;;;5006830;28;20470;-67
2023/03/17 12:26:32;;;;;;;38.08;20.08;;;29.60;99.90;;;;;;5006507;28;20045;-67
2023/03/17 12:29:17;;;;;;;46.15;21.95;;;29.60;99.90;;;;;;5032652;28;20482;-67
2023/03/17 12:31:54;;;;;;;49.25;25.52;;;29.70;99.90;;;;;;5032691;28;20049;-68
2023/03/17 12:34:44;;;;;;;49.20;23.83;;;29.70;99.90;;;;;;5046879;28;20078;-63
2023/03/17 12:37:11;;;;;;;60.03;36.60;;;29.70;99.90;;;;;;5052448;28;20025;-69
2023/03/17 12:39:42;;;;;;;75.82;43.17;;;29.70;99.90;;;;;;5052507;28;20025;-68
2023/03/17 12:42:19;;;;;;;51.90;28.40;;;29.60;99.90;;;;;;5052588;28;20063;-68
2023/03/17 12:45:07;;;;;;;120.90;87.20;;;29.60;99.90;;;;;;5056494;28;20026;-69
2023/03/17 12:47:40;;;;;;;41.90;31.00;;;29.60;99.90;;;;;;5056151;28;20025;-67